sensor_id;sensor_type;location;lat;lon;timestamp;temperature;humidity
3752;DHT22;50827;47.014;7.652;2023-11-19T00:00:08;8.70;99.90
3752;DHT22;50827;47.014;7.652;2023-11-19T00:02:38;8.70;99.90
3752;DHT22;50827;47.014;7.652;2023-11-19T00:05:06;8.70;99.90
3752;DHT22;50827;47.014;7.652;2023-11-19T00:07:35;8.80;99.90
3752;DHT22;50827;47.014;7.652;2023-11-19T00:10:03;8.70;99.90
3752;DHT22;50827;47.014;7.652;2023-11-19T00:12:33;8.60;99.90
3752;DHT22;50827;47.014;7.652;2023-11-19T00:15:00;8.70;99.90
3752;DHT22;50827;47.014;7.652;2023-11-19T00:17:27;8.70;99.90
3752;DHT22;50827;47.014;7.652;2023-11-19T00:19:54;8.70;99.90
3752;DHT22;50827;47.014;7.652;2023-11-19T00:22:21;8.70;99.90
3752;DHT22;50827;47.014;7.652;2023-11-19T00:24:48;8.60;99.90
3752;DHT22;50827;47.014;7.652;2023-11-19T00:27:15;8.60;99.90
3752;DHT22;50827;47.014;7.652;2023-11-19T00:29:42;8.60;99.90
3752;DHT22;50827;47.014;7.652;2023-11-19T00:32:09;8.60;99.90
3752;DHT22;50827;47.014;7.652;2023-11-19T00:34:35;8.60;99.90
3752;DHT22;50827;47.014;7.652;2023-11-19T00:37:02;8.70;99.90
3752;DHT22;50827;47.014;7.652;2023-11-19T00:39:30;8.60;99.90
3752;DHT22;50827;47.014;7.652;2023-11-19T00:41:57;8.60;99.90
3752;DHT22;50827;47.014;7.652;2023-11-19T00:44:23;8.60;99.90
3752;DHT22;50827;47.014;7.652;2023-11-19T00:46:50;8.70;99.90
3752;DHT22;50827;47.014;7.652;2023-11-19T00:49:17;8.60;99.90
3752;DHT22;50827;47.014;7.652;2023-11-19T00:51:44;8.60;99.90
3752;DHT22;50827;47.014;7.652;2023-11-19T00:54:12;8.60;99.90
3752;DHT22;50827;47.014;7.652;2023-11-19T00:56:38;8.50;99.90
3752;DHT22;50827;47.014;7.652;2023-11-19T00:59:06;8.50;99.90
3752;DHT22;50827;47.014;7.652;2023-11-19T01:01:33;8.50;99.90
3752;DHT22;50827;47.014;7.652;2023-11-19T01:03:59;8.50;99.90
3752;DHT22;50827;47.014;7.652;2023-11-19T01:06:28;8.60;99.90
3752;DHT22;50827;47.014;7.652;2023-11-19T01:08:55;8.50;99.90
3752;DHT22;50827;47.014;7.652;2023-11-19T01:11:23;8.60;99.90
3752;DHT22;50827;47.014;7.652;2023-11-19T01:13:51;8.50;99.90
3752;DHT22;50827;47.014;7.652;2023-11-19T01:16:18;8.50;99.90
3752;DHT22;50827;47.014;7.652;2023-11-19T01:18:48;8.50;99.90
3752;DHT22;50827;47.014;7.652;2023-11-19T01:21:15;8.50;99.90
3752;DHT22;50827;47.014;7.652;2023-11-19T01:23:43;8.50;99.90
3752;DHT22;50827;47.014;7.652;2023-11-19T01:26:12;8.50;99.90
3752;DHT22;50827;47.014;7.652;2023-11-19T01:28:40;8.50;99.90
3752;DHT22;50827;47.014;7.652;2023-11-19T01:31:17;8.50;99.90
3752;DHT22;50827;47.014;7.652;2023-11-19T01:33:43;8.60;99.90
3752;DHT22;50827;47.014;7.652;2023-11-19T01:36:13;8.60;99.90
3752;DHT22;50827;47.014;7.652;2023-11-19T01:38:40;8.60;99.90
3752;DHT22;50827;47.014;7.652;2023-11-19T01:41:07;8.70;99.90
3752;DHT22;50827;47.014;7.652;2023-11-19T01:43:38;8.70;99.90
3752;DHT22;50827;47.014;7.652;2023-11-19T01:46:08;8.70;99.90
3752;DHT22;50827;47.014;7.652;2023-11-19T01:48:41;8.70;99.90
3752;DHT22;50827;47.014;7.652;2023-11-19T01:51:09;8.60;99.90
3752;DHT22;50827;47.014;7.652;2023-11-19T01:53:37;8.70;99.90
3752;DHT22;50827;47.014;7.652;2023-11-19T01:56:07;8.70;99.90
3752;DHT22;50827;47.014;7.652;2023-11-19T01:58:36;8.70;99.90
3752;DHT22;50827;47.014;7.652;2023-11-19T02:01:05;8.80;99.90
3752;DHT22;50827;47.014;7.652;2023-11-19T02:03:32;8.80;99.90
3752;DHT22;50827;47.014;7.652;2023-11-19T02:06:02;8.90;99.90
3752;DHT22;50827;47.014;7.652;2023-11-19T02:08:30;8.80;99.90
3752;DHT22;50827;47.014;7.652;2023-11-19T02:10:57;8.90;99.90
3752;DHT22;50827;47.014;7.652;2023-11-19T02:13:25;8.90;99.90
3752;DHT22;50827;47.014;7.652;2023-11-19T02:15:52;9.00;99.90
3752;DHT22;50827;47.014;7.652;2023-11-19T02:18:25;9.00;99.90
3752;DHT22;50827;47.014;7.652;2023-11-19T02:20:55;9.00;99.90
3752;DHT22;50827;47.014;7.652;2023-11-19T02:23:23;9.00;99.90
3752;DHT22;50827;47.014;7.652;2023-11-19T02:26:05;9.00;99.90
3752;DHT22;50827;47.014;7.652;2023-11-19T02:28:36;9.10;99.90
3752;DHT22;50827;47.014;7.652;2023-11-19T02:31:03;9.20;99.90
3752;DHT22;50827;47.014;7.652;2023-11-19T02:33:31;9.20;99.90
3752;DHT22;50827;47.014;7.652;2023-11-19T02:35:58;9.30;99.90
3752;DHT22;50827;47.014;7.652;2023-11-19T02:38:25;9.30;99.90
3752;DHT22;50827;47.014;7.652;2023-11-19T02:40:52;9.30;99.90
3752;DHT22;50827;47.014;7.652;2023-11-19T02:43:19;9.40;99.90
3752;DHT22;50827;47.014;7.652;2023-11-19T02:45:46;9.40;99.90
3752;DHT22;50827;47.014;7.652;2023-11-19T02:48:12;9.50;99.90
3752;DHT22;50827;47.014;7.652;2023-11-19T02:50:42;9.60;99.90
3752;DHT22;50827;47.014;7.652;2023-11-19T02:53:08;9.60;99.90
3752;DHT22;50827;47.014;7.652;2023-11-19T02:55:35;9.70;99.90
3752;DHT22;50827;47.014;7.652;2023-11-19T02:58:05;9.70;99.90
3752;DHT22;50827;47.014;7.652;2023-11-19T03:00:46;9.70;99.90
3752;DHT22;50827;47.014;7.652;2023-11-19T03:03:21;9.70;99.90
3752;DHT22;50827;47.014;7.652;2023-11-19T03:05:49;9.70;99.90
3752;DHT22;50827;47.014;7.652;2023-11-19T03:08:16;9.70;99.90
3752;DHT22;50827;47.014;7.652;2023-11-19T03:10:46;9.70;99.90
3752;DHT22;50827;47.014;7.652;2023-11-19T03:13:13;9.70;99.90
3752;DHT22;50827;47.014;7.652;2023-11-19T03:15:41;9.70;99.90
3752;DHT22;50827;47.014;7.652;2023-11-19T03:18:08;9.60;99.90
3752;DHT22;50827;47.014;7.652;2023-11-19T03:20:38;9.60;99.90
3752;DHT22;50827;47.014;7.652;2023-11-19T03:23:04;9.60;99.90
3752;DHT22;50827;47.014;7.652;2023-11-19T03:25:32;9.60;99.90
3752;DHT22;50827;47.014;7.652;2023-11-19T03:28:03;9.60;99.90
3752;DHT22;50827;47.014;7.652;2023-11-19T03:30:31;9.60;99.90
3752;DHT22;50827;47.014;7.652;2023-11-19T03:33:01;9.60;99.90
3752;DHT22;50827;47.014;7.652;2023-11-19T03:35:29;9.60;99.90
3752;DHT22;50827;47.014;7.652;2023-11-19T03:37:57;9.60;99.90
3752;DHT22;50827;47.014;7.652;2023-11-19T03:40:23;9.60;99.90
3752;DHT22;50827;47.014;7.652;2023-11-19T03:42:51;9.60;99.90
3752;DHT22;50827;47.014;7.652;2023-11-19T03:45:18;9.70;99.90
3752;DHT22;50827;47.014;7.652;2023-11-19T03:47:45;9.70;99.90
3752;DHT22;50827;47.014;7.652;2023-11-19T03:50:11;9.70;99.90
3752;DHT22;50827;47.014;7.652;2023-11-19T03:52:38;9.80;99.90
3752;DHT22;50827;47.014;7.652;2023-11-19T03:55:08;9.80;99.90
3752;DHT22;50827;47.014;7.652;2023-11-19T03:57:35;9.80;99.90
3752;DHT22;50827;47.014;7.652;2023-11-19T04:00:02;9.80;99.90
3752;DHT22;50827;47.014;7.652;2023-11-19T04:02:36;9.80;99.90
3752;DHT22;50827;47.014;7.652;2023-11-19T04:05:04;9.80;99.90
3752;DHT22;50827;47.014;7.652;2023-11-19T04:07:31;9.90;99.90
3752;DHT22;50827;47.014;7.652;2023-11-19T04:09:59;9.90;99.90
3752;DHT22;50827;47.014;7.652;2023-11-19T04:12:26;9.90;99.90
3752;DHT22;50827;47.014;7.652;2023-11-19T04:14:52;9.90;99.90
3752;DHT22;50827;47.014;7.652;2023-11-19T04:17:22;9.90;99.90
3752;DHT22;50827;47.014;7.652;2023-11-19T04:19:50;9.90;99.90
3752;DHT22;50827;47.014;7.652;2023-11-19T04:22:17;9.90;99.90
3752;DHT22;50827;47.014;7.652;2023-11-19T04:24:43;9.90;99.90
3752;DHT22;50827;47.014;7.652;2023-11-19T04:27:12;9.90;99.90
3752;DHT22;50827;47.014;7.652;2023-11-19T04:29:39;9.90;99.90
3752;DHT22;50827;47.014;7.652;2023-11-19T04:32:06;9.80;99.90
3752;DHT22;50827;47.014;7.652;2023-11-19T04:34:36;9.90;99.90
3752;DHT22;50827;47.014;7.652;2023-11-19T04:37:04;9.90;99.90
3752;DHT22;50827;47.014;7.652;2023-11-19T04:39:34;9.80;99.90
3752;DHT22;50827;47.014;7.652;2023-11-19T04:42:01;9.90;99.90
3752;DHT22;50827;47.014;7.652;2023-11-19T04:44:28;9.90;99.90
3752;DHT22;50827;47.014;7.652;2023-11-19T04:46:56;9.80;99.90
3752;DHT22;50827;47.014;7.652;2023-11-19T04:49:23;9.90;99.90
3752;DHT22;50827;47.014;7.652;2023-11-19T04:51:50;9.90;99.90
3752;DHT22;50827;47.014;7.652;2023-11-19T04:54:17;9.90;99.90
3752;DHT22;50827;47.014;7.652;2023-11-19T04:56:45;9.90;99.90
3752;DHT22;50827;47.014;7.652;2023-11-19T04:59:13;9.90;99.90
3752;DHT22;50827;47.014;7.652;2023-11-19T05:01:40;10.00;99.90
3752;DHT22;50827;47.014;7.652;2023-11-19T05:04:07;10.00;99.90
3752;DHT22;50827;47.014;7.652;2023-11-19T05:06:34;10.00;99.90
3752;DHT22;50827;47.014;7.652;2023-11-19T05:09:02;10.00;99.90
3752;DHT22;50827;47.014;7.652;2023-11-19T05:11:34;10.00;99.90
3752;DHT22;50827;47.014;7.652;2023-11-19T05:14:05;10.10;99.90
3752;DHT22;50827;47.014;7.652;2023-11-19T05:16:31;10.10;99.90
3752;DHT22;50827;47.014;7.652;2023-11-19T05:18:59;10.10;99.90
3752;DHT22;50827;47.014;7.652;2023-11-19T05:21:26;10.20;99.90
3752;DHT22;50827;47.014;7.652;2023-11-19T05:23:52;10.30;99.90
3752;DHT22;50827;47.014;7.652;2023-11-19T05:26:22;10.30;99.90
3752;DHT22;50827;47.014;7.652;2023-11-19T05:28:50;10.30;99.90
3752;DHT22;50827;47.014;7.652;2023-11-19T05:31:17;10.30;99.90
3752;DHT22;50827;47.014;7.652;2023-11-19T05:33:44;10.30;99.90
3752;DHT22;50827;47.014;7.652;2023-11-19T05:36:11;10.40;99.90
3752;DHT22;50827;47.014;7.652;2023-11-19T05:38:39;10.40;99.90
3752;DHT22;50827;47.014;7.652;2023-11-19T05:41:06;10.40;99.90
3752;DHT22;50827;47.014;7.652;2023-11-19T05:43:35;10.40;99.90
3752;DHT22;50827;47.014;7.652;2023-11-19T05:46:02;10.50;99.90
3752;DHT22;50827;47.014;7.652;2023-11-19T05:48:29;10.50;99.90
3752;DHT22;50827;47.014;7.652;2023-11-19T05:50:55;10.60;99.90
3752;DHT22;50827;47.014;7.652;2023-11-19T05:53:22;10.60;99.90
3752;DHT22;50827;47.014;7.652;2023-11-19T05:55:49;10.70;99.90
3752;DHT22;50827;47.014;7.652;2023-11-19T05:58:24;10.70;99.90
3752;DHT22;50827;47.014;7.652;2023-11-19T06:00:52;10.70;99.90
3752;DHT22;50827;47.014;7.652;2023-11-19T06:03:19;10.80;99.90
3752;DHT22;50827;47.014;7.652;2023-11-19T06:05:46;10.80;99.90
3752;DHT22;50827;47.014;7.652;2023-11-19T06:08:13;10.80;99.90
3752;DHT22;50827;47.014;7.652;2023-11-19T06:10:41;10.80;99.90
3752;DHT22;50827;47.014;7.652;2023-11-19T06:13:08;10.90;99.90
3752;DHT22;50827;47.014;7.652;2023-11-19T06:15:36;10.90;99.90
3752;DHT22;50827;47.014;7.652;2023-11-19T06:18:03;10.90;99.90
3752;DHT22;50827;47.014;7.652;2023-11-19T06:20:30;10.90;99.90
3752;DHT22;50827;47.014;7.652;2023-11-19T06:23:09;10.90;99.90
3752;DHT22;50827;47.014;7.652;2023-11-19T06:25:36;10.90;99.90
3752;DHT22;50827;47.014;7.652;2023-11-19T06:28:03;10.90;99.90
3752;DHT22;50827;47.014;7.652;2023-11-19T06:30:30;10.90;99.90
3752;DHT22;50827;47.014;7.652;2023-11-19T06:32:59;10.90;99.90
3752;DHT22;50827;47.014;7.652;2023-11-19T06:35:26;11.00;99.90
3752;DHT22;50827;47.014;7.652;2023-11-19T06:37:55;11.00;99.90
3752;DHT22;50827;47.014;7.652;2023-11-19T06:40:22;11.00;99.90
3752;DHT22;50827;47.014;7.652;2023-11-19T06:42:49;11.00;99.90
3752;DHT22;50827;47.014;7.652;2023-11-19T06:45:16;11.00;99.90
3752;DHT22;50827;47.014;7.652;2023-11-19T06:47:43;11.00;99.90
3752;DHT22;50827;47.014;7.652;2023-11-19T06:50:10;11.00;99.90
3752;DHT22;50827;47.014;7.652;2023-11-19T06:52:38;11.10;99.90
3752;DHT22;50827;47.014;7.652;2023-11-19T06:55:07;11.10;99.90
3752;DHT22;50827;47.014;7.652;2023-11-19T06:57:35;11.00;99.90
3752;DHT22;50827;47.014;7.652;2023-11-19T07:00:02;11.00;99.90
3752;DHT22;50827;47.014;7.652;2023-11-19T07:02:29;11.00;99.90
3752;DHT22;50827;47.014;7.652;2023-11-19T07:04:57;11.00;99.90
3752;DHT22;50827;47.014;7.652;2023-11-19T07:07:24;11.10;99.90
3752;DHT22;50827;47.014;7.652;2023-11-19T07:09:51;11.10;99.90
3752;DHT22;50827;47.014;7.652;2023-11-19T07:12:17;11.20;99.90
3752;DHT22;50827;47.014;7.652;2023-11-19T07:14:44;11.20;99.90
3752;DHT22;50827;47.014;7.652;2023-11-19T07:17:11;11.20;99.90
3752;DHT22;50827;47.014;7.652;2023-11-19T07:19:38;11.20;99.90
3752;DHT22;50827;47.014;7.652;2023-11-19T07:22:06;11.20;99.90
3752;DHT22;50827;47.014;7.652;2023-11-19T07:24:33;11.20;99.90
3752;DHT22;50827;47.014;7.652;2023-11-19T07:27:00;11.30;99.90
3752;DHT22;50827;47.014;7.652;2023-11-19T07:29:27;11.30;99.90
3752;DHT22;50827;47.014;7.652;2023-11-19T07:31:55;11.40;99.90
3752;DHT22;50827;47.014;7.652;2023-11-19T07:34:24;11.30;99.90
3752;DHT22;50827;47.014;7.652;2023-11-19T07:36:51;11.30;99.90
3752;DHT22;50827;47.014;7.652;2023-11-19T07:39:19;11.40;99.90
3752;DHT22;50827;47.014;7.652;2023-11-19T07:41:47;11.40;99.90
3752;DHT22;50827;47.014;7.652;2023-11-19T07:44:14;11.40;99.90
3752;DHT22;50827;47.014;7.652;2023-11-19T07:46:41;11.40;99.90
3752;DHT22;50827;47.014;7.652;2023-11-19T07:49:09;11.40;99.90
3752;DHT22;50827;47.014;7.652;2023-11-19T07:51:36;11.50;99.90
3752;DHT22;50827;47.014;7.652;2023-11-19T07:54:03;11.50;99.90
3752;DHT22;50827;47.014;7.652;2023-11-19T07:56:31;11.50;99.90
3752;DHT22;50827;47.014;7.652;2023-11-19T07:58:58;11.50;99.90
3752;DHT22;50827;47.014;7.652;2023-11-19T08:01:25;11.50;99.90
3752;DHT22;50827;47.014;7.652;2023-11-19T08:03:51;11.40;99.90
3752;DHT22;50827;47.014;7.652;2023-11-19T08:06:21;11.40;99.90
3752;DHT22;50827;47.014;7.652;2023-11-19T08:08:48;11.40;99.90
3752;DHT22;50827;47.014;7.652;2023-11-19T08:11:15;11.40;99.90
3752;DHT22;50827;47.014;7.652;2023-11-19T08:13:41;11.40;99.90
3752;DHT22;50827;47.014;7.652;2023-11-19T08:16:09;11.40;99.90
3752;DHT22;50827;47.014;7.652;2023-11-19T08:18:36;11.50;99.90
3752;DHT22;50827;47.014;7.652;2023-11-19T08:21:03;11.50;99.90
3752;DHT22;50827;47.014;7.652;2023-11-19T08:23:32;11.50;99.90
3752;DHT22;50827;47.014;7.652;2023-11-19T08:25:59;11.60;99.90
3752;DHT22;50827;47.014;7.652;2023-11-19T08:28:26;11.60;99.90
3752;DHT22;50827;47.014;7.652;2023-11-19T08:30:53;11.60;99.90
3752;DHT22;50827;47.014;7.652;2023-11-19T08:33:19;11.60;99.90
3752;DHT22;50827;47.014;7.652;2023-11-19T08:35:49;11.60;99.90
3752;DHT22;50827;47.014;7.652;2023-11-19T08:38:15;11.60;99.90
3752;DHT22;50827;47.014;7.652;2023-11-19T08:40:57;11.60;99.90
3752;DHT22;50827;47.014;7.652;2023-11-19T08:43:26;11.60;99.90
3752;DHT22;50827;47.014;7.652;2023-11-19T08:45:53;11.60;99.90
3752;DHT22;50827;47.014;7.652;2023-11-19T08:48:20;11.70;99.90
3752;DHT22;50827;47.014;7.652;2023-11-19T08:50:47;11.70;99.90
3752;DHT22;50827;47.014;7.652;2023-11-19T08:53:14;11.70;99.90
3752;DHT22;50827;47.014;7.652;2023-11-19T08:55:41;11.80;99.90
3752;DHT22;50827;47.014;7.652;2023-11-19T08:58:08;11.70;99.90
3752;DHT22;50827;47.014;7.652;2023-11-19T09:00:35;11.70;99.90
3752;DHT22;50827;47.014;7.652;2023-11-19T09:03:02;11.70;99.90
3752;DHT22;50827;47.014;7.652;2023-11-19T09:05:30;11.70;99.90
3752;DHT22;50827;47.014;7.652;2023-11-19T09:07:56;11.70;99.90
3752;DHT22;50827;47.014;7.652;2023-11-19T09:10:23;11.70;99.90
3752;DHT22;50827;47.014;7.652;2023-11-19T09:12:50;11.70;99.90
3752;DHT22;50827;47.014;7.652;2023-11-19T09:15:16;11.70;99.90
3752;DHT22;50827;47.014;7.652;2023-11-19T09:17:43;11.70;99.90
3752;DHT22;50827;47.014;7.652;2023-11-19T09:20:12;11.80;99.90
3752;DHT22;50827;47.014;7.652;2023-11-19T09:22:42;11.80;99.90
3752;DHT22;50827;47.014;7.652;2023-11-19T09:25:08;11.80;99.90
3752;DHT22;50827;47.014;7.652;2023-11-19T09:27:36;11.80;99.90
3752;DHT22;50827;47.014;7.652;2023-11-19T09:30:03;11.80;99.90
3752;DHT22;50827;47.014;7.652;2023-11-19T09:32:30;11.90;99.90
3752;DHT22;50827;47.014;7.652;2023-11-19T09:34:57;11.90;99.90
3752;DHT22;50827;47.014;7.652;2023-11-19T09:37:24;12.00;99.90
3752;DHT22;50827;47.014;7.652;2023-11-19T09:39:51;12.00;99.90
3752;DHT22;50827;47.014;7.652;2023-11-19T09:42:17;12.00;99.90
3752;DHT22;50827;47.014;7.652;2023-11-19T09:44:45;12.00;99.90
3752;DHT22;50827;47.014;7.652;2023-11-19T09:47:14;12.10;99.90
3752;DHT22;50827;47.014;7.652;2023-11-19T09:49:41;12.10;99.90
3752;DHT22;50827;47.014;7.652;2023-11-19T09:52:08;12.10;99.90
3752;DHT22;50827;47.014;7.652;2023-11-19T09:54:35;12.10;99.90
3752;DHT22;50827;47.014;7.652;2023-11-19T09:57:02;12.10;99.90
3752;DHT22;50827;47.014;7.652;2023-11-19T09:59:31;12.20;99.90
3752;DHT22;50827;47.014;7.652;2023-11-19T10:01:59;12.20;99.90
3752;DHT22;50827;47.014;7.652;2023-11-19T10:04:29;12.20;99.90
3752;DHT22;50827;47.014;7.652;2023-11-19T10:06:57;12.20;99.90
3752;DHT22;50827;47.014;7.652;2023-11-19T10:09:23;12.30;99.90
3752;DHT22;50827;47.014;7.652;2023-11-19T10:11:50;12.30;99.90
3752;DHT22;50827;47.014;7.652;2023-11-19T10:14:20;12.30;99.90
3752;DHT22;50827;47.014;7.652;2023-11-19T10:16:49;12.30;99.90
3752;DHT22;50827;47.014;7.652;2023-11-19T10:19:19;12.20;99.90
3752;DHT22;50827;47.014;7.652;2023-11-19T10:21:47;12.20;99.90
3752;DHT22;50827;47.014;7.652;2023-11-19T10:24:14;12.20;99.90
3752;DHT22;50827;47.014;7.652;2023-11-19T10:26:56;12.20;99.90
3752;DHT22;50827;47.014;7.652;2023-11-19T10:29:24;12.20;99.90
3752;DHT22;50827;47.014;7.652;2023-11-19T10:31:57;12.20;99.90
3752;DHT22;50827;47.014;7.652;2023-11-19T10:34:44;12.30;99.90
3752;DHT22;50827;47.014;7.652;2023-11-19T10:37:29;12.30;99.90
3752;DHT22;50827;47.014;7.652;2023-11-19T10:40:00;12.30;99.90
3752;DHT22;50827;47.014;7.652;2023-11-19T10:42:27;12.40;99.90
3752;DHT22;50827;47.014;7.652;2023-11-19T10:44:54;12.50;99.90
3752;DHT22;50827;47.014;7.652;2023-11-19T10:47:22;12.50;99.90
3752;DHT22;50827;47.014;7.652;2023-11-19T10:49:53;12.50;99.90
3752;DHT22;50827;47.014;7.652;2023-11-19T10:52:19;12.60;99.90
3752;DHT22;50827;47.014;7.652;2023-11-19T10:54:50;12.70;99.90
3752;DHT22;50827;47.014;7.652;2023-11-19T10:57:20;12.70;99.90
3752;DHT22;50827;47.014;7.652;2023-11-19T10:59:49;12.70;99.90
3752;DHT22;50827;47.014;7.652;2023-11-19T11:02:21;12.80;99.90
3752;DHT22;50827;47.014;7.652;2023-11-19T11:04:51;12.80;99.90
3752;DHT22;50827;47.014;7.652;2023-11-19T11:07:21;12.80;99.90
3752;DHT22;50827;47.014;7.652;2023-11-19T11:10:02;12.80;99.90
3752;DHT22;50827;47.014;7.652;2023-11-19T11:12:36;12.90;99.90
3752;DHT22;50827;47.014;7.652;2023-11-19T11:15:04;12.90;99.90
3752;DHT22;50827;47.014;7.652;2023-11-19T11:17:33;12.90;99.90
3752;DHT22;50827;47.014;7.652;2023-11-19T11:20:01;12.90;99.90
3752;DHT22;50827;47.014;7.652;2023-11-19T11:22:36;13.00;99.90
3752;DHT22;50827;47.014;7.652;2023-11-19T11:28:24;13.00;99.90
3752;DHT22;50827;47.014;7.652;2023-11-19T11:31:09;13.00;99.90
3752;DHT22;50827;47.014;7.652;2023-11-19T11:39:32;13.20;99.90
3752;DHT22;50827;47.014;7.652;2023-11-19T11:45:07;13.30;99.90
3752;DHT22;50827;47.014;7.652;2023-11-19T11:50:17;13.40;99.90
3752;DHT22;50827;47.014;7.652;2023-11-19T11:53:17;13.40;99.90
3752;DHT22;50827;47.014;7.652;2023-11-19T11:58:22;13.50;99.90
3752;DHT22;50827;47.014;7.652;2023-11-19T12:00:52;13.50;99.90
3752;DHT22;50827;47.014;7.652;2023-11-19T12:03:22;13.50;99.90
3752;DHT22;50827;47.014;7.652;2023-11-19T12:05:49;13.60;99.90
3752;DHT22;50827;47.014;7.652;2023-11-19T12:08:20;13.60;99.90
3752;DHT22;50827;47.014;7.652;2023-11-19T12:10:54;13.60;99.90
3752;DHT22;50827;47.014;7.652;2023-11-19T12:13:27;13.60;99.90
3752;DHT22;50827;47.014;7.652;2023-11-19T12:18:27;13.70;99.90
3752;DHT22;50827;47.014;7.652;2023-11-19T12:20:58;13.70;99.90
3752;DHT22;50827;47.014;7.652;2023-11-19T12:23:28;13.70;99.90
3752;DHT22;50827;47.014;7.652;2023-11-19T12:25:56;13.70;99.90
3752;DHT22;50827;47.014;7.652;2023-11-19T12:28:23;13.80;99.90
3752;DHT22;50827;47.014;7.652;2023-11-19T12:30:53;13.80;99.90
3752;DHT22;50827;47.014;7.652;2023-11-19T12:33:20;13.80;99.90
3752;DHT22;50827;47.014;7.652;2023-11-19T12:35:48;13.80;99.90
3752;DHT22;50827;47.014;7.652;2023-11-19T12:38:22;13.80;99.90
3752;DHT22;50827;47.014;7.652;2023-11-19T12:41:08;13.90;99.90
3752;DHT22;50827;47.014;7.652;2023-11-19T12:43:38;13.80;99.90
3752;DHT22;50827;47.014;7.652;2023-11-19T12:46:22;13.80;99.90
3752;DHT22;50827;47.014;7.652;2023-11-19T12:48:51;13.90;99.90
3752;DHT22;50827;47.014;7.652;2023-11-19T12:51:18;13.90;99.90
3752;DHT22;50827;47.014;7.652;2023-11-19T12:53:52;13.90;99.90
3752;DHT22;50827;47.014;7.652;2023-11-19T12:56:22;13.80;99.90
3752;DHT22;50827;47.014;7.652;2023-11-19T12:58:49;13.80;99.90
3752;DHT22;50827;47.014;7.652;2023-11-19T13:01:18;13.90;99.90
3752;DHT22;50827;47.014;7.652;2023-11-19T13:03:46;13.90;99.90
3752;DHT22;50827;47.014;7.652;2023-11-19T13:06:14;13.90;99.90
3752;DHT22;50827;47.014;7.652;2023-11-19T13:08:46;13.90;99.90
3752;DHT22;50827;47.014;7.652;2023-11-19T13:11:30;13.90;99.90
3752;DHT22;50827;47.014;7.652;2023-11-19T13:14:02;13.90;99.90
3752;DHT22;50827;47.014;7.652;2023-11-19T13:16:37;14.00;99.90
3752;DHT22;50827;47.014;7.652;2023-11-19T13:19:04;13.90;99.90
3752;DHT22;50827;47.014;7.652;2023-11-19T13:21:31;14.00;99.90
3752;DHT22;50827;47.014;7.652;2023-11-19T13:23:59;14.00;99.90
3752;DHT22;50827;47.014;7.652;2023-11-19T13:26:25;13.90;99.90
3752;DHT22;50827;47.014;7.652;2023-11-19T13:28:52;13.90;99.90
3752;DHT22;50827;47.014;7.652;2023-11-19T13:31:19;13.90;99.90
3752;DHT22;50827;47.014;7.652;2023-11-19T13:33:46;14.00;99.90
3752;DHT22;50827;47.014;7.652;2023-11-19T13:36:13;14.00;99.90
3752;DHT22;50827;47.014;7.652;2023-11-19T13:38:43;13.90;99.90
3752;DHT22;50827;47.014;7.652;2023-11-19T13:41:11;14.00;99.90
3752;DHT22;50827;47.014;7.652;2023-11-19T13:43:39;13.90;99.90
3752;DHT22;50827;47.014;7.652;2023-11-19T13:46:06;14.00;99.90
3752;DHT22;50827;47.014;7.652;2023-11-19T13:48:33;13.90;99.90
3752;DHT22;50827;47.014;7.652;2023-11-19T13:51:00;13.90;99.90
3752;DHT22;50827;47.014;7.652;2023-11-19T13:53:26;13.90;99.90
3752;DHT22;50827;47.014;7.652;2023-11-19T13:55:53;13.90;99.90
3752;DHT22;50827;47.014;7.652;2023-11-19T13:58:20;13.90;99.90
3752;DHT22;50827;47.014;7.652;2023-11-19T14:00:47;13.90;99.90
3752;DHT22;50827;47.014;7.652;2023-11-19T14:03:13;13.90;99.90
3752;DHT22;50827;47.014;7.652;2023-11-19T14:05:41;14.00;99.90
3752;DHT22;50827;47.014;7.652;2023-11-19T14:08:08;14.00;99.90
3752;DHT22;50827;47.014;7.652;2023-11-19T14:10:51;14.00;99.90
3752;DHT22;50827;47.014;7.652;2023-11-19T14:13:18;14.00;99.90
3752;DHT22;50827;47.014;7.652;2023-11-19T14:15:45;14.10;99.90
3752;DHT22;50827;47.014;7.652;2023-11-19T14:18:16;14.10;99.90
3752;DHT22;50827;47.014;7.652;2023-11-19T14:20:42;14.10;99.90
3752;DHT22;50827;47.014;7.652;2023-11-19T14:23:10;14.20;99.90
3752;DHT22;50827;47.014;7.652;2023-11-19T14:25:37;14.20;99.90
3752;DHT22;50827;47.014;7.652;2023-11-19T14:28:04;14.20;99.90
3752;DHT22;50827;47.014;7.652;2023-11-19T14:30:32;14.20;99.90
3752;DHT22;50827;47.014;7.652;2023-11-19T14:33:00;14.30;99.90
3752;DHT22;50827;47.014;7.652;2023-11-19T14:35:27;14.20;99.90
3752;DHT22;50827;47.014;7.652;2023-11-19T14:37:57;14.30;99.90
3752;DHT22;50827;47.014;7.652;2023-11-19T14:40:23;14.30;99.90
3752;DHT22;50827;47.014;7.652;2023-11-19T14:43:08;14.40;99.90
3752;DHT22;50827;47.014;7.652;2023-11-19T14:45:37;14.40;99.90
3752;DHT22;50827;47.014;7.652;2023-11-19T14:48:15;14.40;99.90
3752;DHT22;50827;47.014;7.652;2023-11-19T14:50:41;14.40;99.90
3752;DHT22;50827;47.014;7.652;2023-11-19T14:53:08;14.40;99.90
3752;DHT22;50827;47.014;7.652;2023-11-19T14:55:35;14.40;99.90
3752;DHT22;50827;47.014;7.652;2023-11-19T14:58:02;14.40;99.90
3752;DHT22;50827;47.014;7.652;2023-11-19T15:00:35;14.40;99.90
3752;DHT22;50827;47.014;7.652;2023-11-19T15:03:03;14.40;99.90
3752;DHT22;50827;47.014;7.652;2023-11-19T15:05:29;14.40;99.90
3752;DHT22;50827;47.014;7.652;2023-11-19T15:07:56;14.30;99.90
3752;DHT22;50827;47.014;7.652;2023-11-19T15:10:23;14.40;99.90
3752;DHT22;50827;47.014;7.652;2023-11-19T15:12:52;14.40;99.90
3752;DHT22;50827;47.014;7.652;2023-11-19T15:15:20;14.40;99.90
3752;DHT22;50827;47.014;7.652;2023-11-19T15:17:50;14.40;99.90
3752;DHT22;50827;47.014;7.652;2023-11-19T15:20:17;14.40;99.90
3752;DHT22;50827;47.014;7.652;2023-11-19T15:22:45;14.40;99.90
3752;DHT22;50827;47.014;7.652;2023-11-19T15:25:13;14.40;99.90
3752;DHT22;50827;47.014;7.652;2023-11-19T15:27:40;14.30;99.90
3752;DHT22;50827;47.014;7.652;2023-11-19T15:30:07;14.30;99.90
3752;DHT22;50827;47.014;7.652;2023-11-19T15:32:37;14.40;99.90
3752;DHT22;50827;47.014;7.652;2023-11-19T15:35:04;14.30;99.90
3752;DHT22;50827;47.014;7.652;2023-11-19T15:37:31;14.30;99.90
3752;DHT22;50827;47.014;7.652;2023-11-19T15:39:58;14.30;99.90
3752;DHT22;50827;47.014;7.652;2023-11-19T15:42:25;14.30;99.90
3752;DHT22;50827;47.014;7.652;2023-11-19T15:44:51;14.30;99.90
3752;DHT22;50827;47.014;7.652;2023-11-19T15:47:18;14.30;99.90
3752;DHT22;50827;47.014;7.652;2023-11-19T15:49:45;14.30;99.90
3752;DHT22;50827;47.014;7.652;2023-11-19T15:52:12;14.30;99.90
3752;DHT22;50827;47.014;7.652;2023-11-19T15:54:41;14.30;99.90
3752;DHT22;50827;47.014;7.652;2023-11-19T15:57:08;14.30;99.90
3752;DHT22;50827;47.014;7.652;2023-11-19T15:59:35;14.30;99.90
3752;DHT22;50827;47.014;7.652;2023-11-19T16:02:02;14.30;99.90
3752;DHT22;50827;47.014;7.652;2023-11-19T16:04:28;14.30;99.90
3752;DHT22;50827;47.014;7.652;2023-11-19T16:06:55;14.30;99.90
3752;DHT22;50827;47.014;7.652;2023-11-19T16:09:22;14.30;99.90
3752;DHT22;50827;47.014;7.652;2023-11-19T16:11:49;14.30;99.90
3752;DHT22;50827;47.014;7.652;2023-11-19T16:14:25;14.30;99.90
3752;DHT22;50827;47.014;7.652;2023-11-19T16:16:52;14.20;99.90